Time;durP1;ratioP1;P1;durP2;ratioP2;P2;SDS_P1;SDS_P2;PMS_P1;PMS_P2;Temp;Humidity;BMP_temperature;BMP_pressure;BME280_temperature;BME280_humidity;BME280_pressure;Samples;Min_cycle;Max_cycle;Signal;HPM_P1;HPM_P2
2022/05/29 00:02:41;;;;;;;1.50;1.08;;;20.20;80.10;;;;;;10867266;32;20020;-76
2022/05/29 00:08:45;;;;;;;4.15;1.25;;;19.90;79.00;;;;;;10864286;32;20039;-75
2022/05/29 00:14:48;;;;;;;1.52;1.40;;;19.90;80.00;;;;;;10492445;32;12044728;-75
2022/05/29 00:20:54;;;;;;;1.33;1.10;;;19.90;80.20;;;;;;10785718;33;20024;-76
2022/05/29 00:26:56;;;;;;;2.33;1.33;;;20.00;80.80;;;;;;10789564;33;20070;-77
2022/05/29 00:32:59;;;;;;;3.28;1.20;;;20.00;81.10;;;;;;10788910;33;20059;-76
2022/05/29 00:39:01;;;;;;;1.50;1.40;;;20.00;81.10;;;;;;10777065;33;20055;-76
2022/05/29 00:45:05;;;;;;;1.45;1.02;;;20.00;80.80;;;;;;10854490;32;20431;-77
2022/05/29 00:51:13;;;;;;;2.60;1.27;;;20.00;81.00;;;;;;10864893;32;20058;-76
2022/05/29 00:57:18;;;;;;;1.80;1.30;;;20.00;80.80;;;;;;10866271;32;20062;-76
2022/05/29 01:03:20;;;;;;;3.05;1.27;;;20.00;80.40;;;;;;10868996;32;20016;-77
2022/05/29 01:09:22;;;;;;;0.90;0.82;;;19.90;80.40;;;;;;10872965;32;20423;-78
2022/05/29 01:15:34;;;;;;;7.82;1.40;;;19.80;80.40;;;;;;10916922;27;20065;-77
2022/05/29 01:21:57;;;;;;;1.45;1.02;;;19.70;80.50;;;;;;11010013;32;20045;-78
2022/05/29 01:28:20;;;;;;;2.15;1.33;;;19.80;79.80;;;;;;11023097;32;20027;-78
2022/05/29 01:34:58;;;;;;;5.12;2.10;;;19.80;79.40;;;;;;11022857;32;20299;-77
2022/05/29 01:41:39;;;;;;;1.42;1.00;;;19.60;79.50;;;;;;11022483;32;20056;-77
2022/05/29 01:48:10;;;;;;;1.95;1.33;;;19.40;79.90;;;;;;11008742;32;20060;-78
2022/05/29 01:54:24;;;;;;;3.60;1.70;;;19.60;80.10;;;;;;10830857;32;20054;-77
2022/05/29 02:00:27;;;;;;;1.10;1.00;;;19.60;80.10;;;;;;10829847;32;20054;-79
2022/05/29 02:13:27;;;;;;;2.47;1.52;;;19.60;80.10;;;;;;10828587;32;20036;-78
2022/05/29 02:19:35;;;;;;;3.70;1.40;;;19.60;80.60;;;;;;10829350;32;20043;-77
2022/05/29 02:25:39;;;;;;;2.15;1.33;;;19.60;80.60;;;;;;10828943;32;20028;-77
2022/05/29 02:32:03;;;;;;;2.60;1.85;;;19.60;80.80;;;;;;11002134;32;20026;-77
2022/05/29 02:38:35;;;;;;;1.35;1.20;;;19.70;80.70;;;;;;11006697;32;20022;-77
2022/05/29 02:45:12;;;;;;;2.15;1.52;;;19.60;80.60;;;;;;11006676;32;20022;-77
2022/05/29 02:51:24;;;;;;;1.62;1.42;;;19.50;80.30;;;;;;11015727;32;20026;-77
2022/05/29 02:57:26;;;;;;;3.08;1.60;;;19.60;80.00;;;;;;11019740;32;20322;-77
2022/05/29 03:03:31;;;;;;;2.42;1.70;;;19.60;79.90;;;;;;11019590;32;20386;-77
2022/05/29 03:10:15;;;;;;;1.48;1.23;;;19.60;80.10;;;;;;11019381;32;20050;-77
2022/05/29 03:16:36;;;;;;;2.00;1.58;;;19.60;80.40;;;;;;10827193;32;20028;-77
2022/05/29 03:23:04;;;;;;;1.30;1.20;;;19.50;80.60;;;;;;10827622;32;20012;-76
2022/05/29 03:29:12;;;;;;;2.77;1.97;;;19.50;80.80;;;;;;10827118;32;20438;-75
2022/05/29 03:35:18;;;;;;;2.05;1.40;;;19.40;81.30;;;;;;10827116;32;20043;-76
2022/05/29 03:41:39;;;;;;;1.65;1.40;;;19.50;81.40;;;;;;10810428;33;20066;-76
2022/05/29 03:47:41;;;;;;;1.15;1.00;;;19.50;81.10;;;;;;10901151;32;20034;-76
2022/05/29 03:53:43;;;;;;;1.42;1.33;;;19.50;81.30;;;;;;11018080;32;20076;-76
2022/05/29 03:59:46;;;;;;;2.78;1.83;;;19.40;81.40;;;;;;11017800;32;20044;-76
2022/05/29 04:05:48;;;;;;;1.92;1.17;;;19.30;81.60;;;;;;11017804;32;20017;-76
2022/05/29 04:12:03;;;;;;;1.73;1.55;;;19.30;81.30;;;;;;11017694;32;20031;-77
2022/05/29 04:18:05;;;;;;;3.22;1.25;;;19.30;81.50;;;;;;11017585;32;20026;-76
2022/05/29 04:24:08;;;;;;;2.45;1.65;;;19.20;81.40;;;;;;11017531;32;20428;-76
2022/05/29 04:30:12;;;;;;;1.87;1.27;;;19.00;81.20;;;;;;11013483;32;20026;-76
2022/05/29 04:36:34;;;;;;;1.65;1.42;;;18.80;81.50;;;;;;11006429;32;20030;-74
2022/05/29 04:42:36;;;;;;;1.92;1.70;;;18.80;81.60;;;;;;11024758;32;20053;-77
2022/05/29 04:48:38;;;;;;;4.90;2.47;;;18.70;81.60;;;;;;11022689;32;20406;-75
2022/05/29 04:54:40;;;;;;;1.65;1.20;;;18.60;81.90;;;;;;11021916;32;20018;-75
2022/05/29 05:00:42;;;;;;;3.92;2.03;;;18.60;81.70;;;;;;11023835;32;20339;-75
2022/05/29 05:07:03;;;;;;;4.03;1.27;;;18.70;81.80;;;;;;11025213;32;20327;-75
2022/05/29 05:13:09;;;;;;;3.12;1.65;;;18.60;81.70;;;;;;11022458;32;20052;-75
2022/05/29 05:19:12;;;;;;;1.30;1.20;;;18.70;81.50;;;;;;11023545;32;20418;-76
2022/05/29 05:26:09;;;;;;;3.47;1.90;;;18.50;81.50;;;;;;11022493;32;20034;-76
2022/05/29 05:32:13;;;;;;;2.33;1.40;;;18.60;81.90;;;;;;10831251;32;20098;-77
2022/05/29 05:38:15;;;;;;;3.80;1.80;;;18.60;81.30;;;;;;10830176;32;20043;-76
2022/05/29 05:44:17;;;;;;;1.35;1.25;;;18.60;81.70;;;;;;10831583;32;20043;-76
2022/05/29 05:50:19;;;;;;;6.68;1.87;;;18.70;81.90;;;;;;10831411;32;20325;-77
2022/05/29 05:56:21;;;;;;;2.65;1.45;;;18.70;81.50;;;;;;10828339;32;20046;-74
2022/05/29 06:02:23;;;;;;;3.67;2.25;;;18.80;80.90;;;;;;10828228;32;20085;-74
2022/05/29 06:08:26;;;;;;;1.52;1.05;;;18.80;81.30;;;;;;10964586;32;20026;-76
2022/05/29 06:14:27;;;;;;;3.12;1.73;;;18.80;80.50;;;;;;11021644;32;20018;-75
2022/05/29 06:20:32;;;;;;;2.05;1.27;;;18.80;80.20;;;;;;11021343;32;20026;-74
2022/05/29 06:26:34;;;;;;;1.42;1.02;;;18.80;79.90;;;;;;11019943;32;20031;-74
2022/05/29 06:32:37;;;;;;;1.80;1.33;;;18.80;80.00;;;;;;11020465;32;20064;-75
2022/05/29 06:38:40;;;;;;;1.37;1.17;;;18.90;80.20;;;;;;11020388;32;20030;-74
2022/05/29 06:44:42;;;;;;;2.72;1.60;;;19.00;79.70;;;;;;11006947;32;20337;-74
2022/05/29 06:50:44;;;;;;;1.20;1.10;;;18.90;79.50;;;;;;11019837;32;20068;-76
2022/05/29 06:56:46;;;;;;;4.60;1.83;;;19.00;79.90;;;;;;11019928;32;20040;-74
2022/05/29 07:09:13;;;;;;;2.05;1.52;;;18.90;79.20;;;;;;11019450;32;20103;-74
2022/05/29 07:15:17;;;;;;;1.85;1.40;;;18.90;79.50;;;;;;11019232;32;20026;-74
2022/05/29 07:21:21;;;;;;;1.42;1.17;;;19.20;79.90;;;;;;11019011;32;20045;-74
2022/05/29 07:27:23;;;;;;;3.40;1.10;;;19.20;79.50;;;;;;11019097;32;20142;-74
2022/05/29 07:33:25;;;;;;;1.80;1.35;;;19.30;79.60;;;;;;11005117;32;20049;-74
2022/05/29 07:39:27;;;;;;;2.80;1.35;;;19.20;79.10;;;;;;11018234;32;20027;-76
2022/05/29 07:45:30;;;;;;;2.35;1.52;;;19.20;78.40;;;;;;11018258;32;20052;-76
2022/05/29 07:51:42;;;;;;;2.12;1.58;;;19.20;79.00;;;;;;11018124;32;20040;-75
2022/05/29 07:57:46;;;;;;;1.90;1.25;;;19.20;79.20;;;;;;11018105;32;20044;-74
2022/05/29 08:03:49;;;;;;;2.25;1.20;;;19.20;78.80;;;;;;11018061;32;20015;-77
2022/05/29 08:09:51;;;;;;;3.22;1.73;;;19.30;78.30;;;;;;11017621;32;20014;-74
2022/05/29 08:15:59;;;;;;;1.65;1.10;;;19.30;77.60;;;;;;11023599;32;20068;-74
2022/05/29 08:22:13;;;;;;;1.77;1.27;;;19.30;76.10;;;;;;11007476;32;20018;-75
2022/05/29 08:34:36;;;;;;;1.70;1.33;;;19.60;75.30;;;;;;11024583;32;20022;-75
2022/05/29 08:41:02;;;;;;;10.48;2.05;;;19.60;74.10;;;;;;11024717;32;20048;-75
2022/05/29 08:47:04;;;;;;;2.05;1.55;;;19.60;73.40;;;;;;11011055;32;20330;-76
2022/05/29 08:53:14;;;;;;;2.35;1.30;;;19.80;73.40;;;;;;11018529;32;20030;-72
2022/05/29 08:59:55;;;;;;;0.98;0.85;;;20.10;73.50;;;;;;11020992;32;20026;-73
2022/05/29 09:06:18;;;;;;;4.03;1.12;;;20.20;72.40;;;;;;11019688;32;20018;-73
2022/05/29 09:12:45;;;;;;;4.20;1.52;;;20.20;71.80;;;;;;11024377;32;20029;-74
2022/05/29 09:19:09;;;;;;;14.10;1.58;;;20.30;71.50;;;;;;10920597;26;20066;-76
2022/05/29 09:25:22;;;;;;;1.62;1.00;;;20.30;71.80;;;;;;10909508;32;20031;-75
2022/05/29 09:31:25;;;;;;;2.72;0.88;;;20.20;72.10;;;;;;10909597;32;20455;-76
2022/05/29 09:37:42;;;;;;;1.10;0.93;;;20.40;72.40;;;;;;10905298;32;20045;-76
2022/05/29 09:44:17;;;;;;;1.25;1.10;;;20.60;71.20;;;;;;10905517;32;20086;-74
2022/05/29 09:50:20;;;;;;;1.85;1.10;;;20.60;70.50;;;;;;10790429;32;20028;-76
2022/05/29 09:56:29;;;;;;;1.23;1.00;;;20.30;72.30;;;;;;10792998;32;20163;-74
2022/05/29 10:02:38;;;;;;;2.67;0.70;;;20.30;73.30;;;;;;10793157;32;20318;-76
2022/05/29 10:08:40;;;;;;;2.40;1.35;;;20.30;73.20;;;;;;10788801;33;20044;-74
2022/05/29 10:14:44;;;;;;;2.75;1.37;;;20.30;75.20;;;;;;10793223;33;20032;-76
2022/05/29 10:20:46;;;;;;;4.07;1.50;;;20.30;75.10;;;;;;10780984;33;20051;-77
2022/05/29 10:26:59;;;;;;;2.08;1.15;;;20.30;74.50;;;;;;10889497;32;20277;-74
2022/05/29 10:33:10;;;;;;;2.10;1.33;;;20.30;74.00;;;;;;10893750;32;20319;-74
2022/05/29 10:39:42;;;;;;;1.58;1.27;;;20.40;74.40;;;;;;10902817;32;20375;-76
2022/05/29 10:45:46;;;;;;;4.82;1.17;;;20.50;73.90;;;;;;10906874;32;20049;-77
2022/05/29 10:52:13;;;;;;;1.23;1.05;;;20.50;73.60;;;;;;10891416;32;20050;-76
2022/05/29 10:58:43;;;;;;;1.45;1.20;;;20.50;73.50;;;;;;10907085;32;20395;-77
2022/05/29 11:05:16;;;;;;;0.90;0.90;;;20.60;73.10;;;;;;10893533;32;20061;-76
2022/05/29 11:11:24;;;;;;;0.88;0.80;;;20.60;72.20;;;;;;10877777;32;20054;-75
2022/05/29 11:17:42;;;;;;;0.98;0.80;;;20.60;71.80;;;;;;10868246;32;20027;-77
2022/05/29 11:24:11;;;;;;;2.23;1.30;;;20.50;71.80;;;;;;10868128;32;20063;-75
2022/05/29 11:30:46;;;;;;;0.70;0.70;;;20.40;71.90;;;;;;10868183;32;20023;-73
2022/05/29 11:37:30;;;;;;;1.27;0.80;;;20.30;71.80;;;;;;10867833;32;20329;-76
2022/05/29 11:43:40;;;;;;;1.20;0.82;;;20.20;72.50;;;;;;10867557;32;20020;-76
2022/05/29 11:56:45;;;;;;;1.45;1.12;;;20.30;72.40;;;;;;10867466;32;20066;-75
2022/05/29 12:03:07;;;;;;;4.62;1.27;;;20.50;72.70;;;;;;10863208;32;20038;-75
2022/05/29 12:09:21;;;;;;;0.82;0.82;;;20.40;72.70;;;;;;10867012;32;20032;-76
2022/05/29 12:15:24;;;;;;;0.93;0.88;;;20.40;72.80;;;;;;10864965;32;20042;-76
2022/05/29 12:22:05;;;;;;;0.90;0.88;;;20.40;73.00;;;;;;10866975;32;20046;-76
2022/05/29 12:28:15;;;;;;;1.05;0.85;;;20.40;73.00;;;;;;10867716;32;20023;-76
2022/05/29 12:34:25;;;;;;;2.25;1.00;;;20.30;73.20;;;;;;10866928;32;20038;-76
2022/05/29 12:40:42;;;;;;;3.55;1.62;;;20.40;73.30;;;;;;10866665;32;20012;-76
2022/05/29 12:47:15;;;;;;;0.75;0.75;;;20.30;73.30;;;;;;10866418;32;20020;-76
2022/05/29 12:54:09;;;;;;;0.60;0.60;;;20.40;73.80;;;;;;10787824;33;20035;-76
2022/05/29 13:00:21;;;;;;;1.20;0.88;;;20.50;73.70;;;;;;10792492;33;20051;-75
2022/05/29 13:06:47;;;;;;;1.85;1.12;;;20.50;73.90;;;;;;10796952;33;20050;-76
2022/05/29 13:13:00;;;;;;;2.42;0.90;;;20.60;74.20;;;;;;10795845;33;20062;-76
2022/05/29 13:25:11;;;;;;;1.60;0.82;;;20.50;74.60;;;;;;10869211;32;20046;-76
2022/05/29 13:31:16;;;;;;;4.53;1.12;;;20.50;75.30;;;;;;10871922;32;20336;-73
2022/05/29 13:37:43;;;;;;;1.10;1.00;;;20.50;75.00;;;;;;10871966;32;20024;-75
2022/05/29 13:43:46;;;;;;;1.20;0.75;;;20.40;74.80;;;;;;10871822;32;20457;-74
2022/05/29 13:49:57;;;;;;;1.80;1.25;;;20.30;74.60;;;;;;10871545;32;20053;-74
2022/05/29 13:56:06;;;;;;;0.98;0.77;;;20.30;74.00;;;;;;10858156;32;20054;-76
2022/05/29 14:09:13;;;;;;;1.08;0.90;;;20.30;73.50;;;;;;10867095;32;20028;-77
2022/05/29 14:15:49;;;;;;;0.60;0.60;;;20.30;73.00;;;;;;10870478;32;20059;-75
2022/05/29 14:22:03;;;;;;;1.37;1.00;;;20.30;72.80;;;;;;10868800;32;20027;-76
2022/05/29 14:28:24;;;;;;;1.60;0.88;;;20.30;73.00;;;;;;10870320;32;20044;-75
2022/05/29 14:34:42;;;;;;;1.65;1.00;;;20.30;73.10;;;;;;10869273;32;20031;-76
2022/05/29 14:41:29;;;;;;;1.65;0.85;;;20.30;73.60;;;;;;10869598;32;20077;-76
2022/05/29 14:48:17;;;;;;;1.00;0.90;;;20.30;73.40;;;;;;10867886;32;20046;-75
2022/05/29 14:54:32;;;;;;;0.70;0.70;;;20.30;73.50;;;;;;10867727;32;20039;-75
2022/05/29 15:00:40;;;;;;;1.85;0.80;;;20.20;73.60;;;;;;10868885;32;20050;-76
2022/05/29 15:14:02;;;;;;;1.20;1.10;;;20.10;73.10;;;;;;10880354;32;20055;-75
2022/05/29 15:26:32;;;;;;;2.15;1.37;;;20.00;72.80;;;;;;10905164;32;20023;-73
2022/05/29 15:32:38;;;;;;;0.73;0.73;;;20.00;73.00;;;;;;10903804;32;20020;-75
2022/05/29 15:38:44;;;;;;;1.27;0.93;;;19.90;73.10;;;;;;10904863;32;20031;-75
2022/05/29 15:45:40;;;;;;;1.83;1.10;;;19.90;72.90;;;;;;10903021;32;20023;-74
2022/05/29 15:52:04;;;;;;;0.93;0.80;;;19.90;72.50;;;;;;10904588;32;20074;-76
2022/05/29 15:58:25;;;;;;;1.30;0.93;;;19.90;73.70;;;;;;10904692;32;20019;-72
2022/05/29 16:04:35;;;;;;;1.15;0.80;;;20.00;72.70;;;;;;10904340;32;20034;-74
2022/05/29 16:10:39;;;;;;;1.10;0.80;;;19.90;72.80;;;;;;10903790;32;20406;-72
2022/05/29 16:17:09;;;;;;;1.50;1.20;;;19.80;72.60;;;;;;10890911;32;20031;-75
2022/05/29 16:23:36;;;;;;;2.62;1.20;;;19.70;72.70;;;;;;10904014;32;20046;-75
2022/05/29 16:29:52;;;;;;;1.23;1.00;;;19.80;73.30;;;;;;10903703;32;20061;-76
2022/05/29 16:36:00;;;;;;;1.70;0.80;;;19.80;73.40;;;;;;10908532;32;20020;-75
2022/05/29 16:48:58;;;;;;;0.62;0.62;;;19.80;74.10;;;;;;10911011;32;20034;-76
2022/05/29 16:55:08;;;;;;;0.57;0.57;;;19.80;74.40;;;;;;10910537;32;20057;-76
2022/05/29 17:01:16;;;;;;;1.85;1.17;;;19.80;74.30;;;;;;10910102;32;20065;-76
2022/05/29 17:07:21;;;;;;;1.23;0.83;;;19.80;74.40;;;;;;10909984;32;20019;-74
2022/05/29 17:13:23;;;;;;;1.50;0.93;;;19.80;74.30;;;;;;10916742;27;20150;-75
2022/05/29 17:19:26;;;;;;;0.93;0.70;;;19.70;74.40;;;;;;10942972;32;20093;-75
2022/05/29 17:25:41;;;;;;;2.30;1.12;;;19.80;74.60;;;;;;10946231;32;20031;-74
2022/05/29 17:32:02;;;;;;;1.15;0.95;;;19.70;74.30;;;;;;10947098;32;20061;-76
2022/05/29 17:38:23;;;;;;;1.30;0.77;;;19.80;74.60;;;;;;10932652;32;20027;-76
2022/05/29 17:44:29;;;;;;;0.68;0.68;;;19.90;74.30;;;;;;10946292;32;20097;-75
2022/05/29 17:51:03;;;;;;;0.68;0.68;;;20.00;74.10;;;;;;10946530;32;20027;-74
2022/05/29 17:57:06;;;;;;;0.88;0.80;;;20.10;73.50;;;;;;10938612;32;20066;-75
2022/05/29 18:03:14;;;;;;;1.02;0.93;;;20.60;73.50;;;;;;10946269;32;20023;-77
2022/05/29 18:09:16;;;;;;;0.73;0.70;;;20.50;72.60;;;;;;10944917;32;20390;-77
2022/05/29 18:15:18;;;;;;;0.73;0.70;;;20.10;73.30;;;;;;10945484;32;20350;-77
2022/05/29 18:21:20;;;;;;;0.68;0.68;;;19.90;74.20;;;;;;10945680;32;20015;-75
2022/05/29 18:27:22;;;;;;;1.52;1.25;;;19.80;74.50;;;;;;10945449;32;20343;-77
2022/05/29 18:33:33;;;;;;;1.60;0.80;;;19.70;74.60;;;;;;10945041;32;20053;-77
2022/05/29 18:39:35;;;;;;;1.45;0.68;;;19.50;74.70;;;;;;10944935;32;20351;-77
2022/05/29 18:46:16;;;;;;;0.60;0.60;;;19.50;75.40;;;;;;10944726;32;20030;-77
2022/05/29 18:52:18;;;;;;;2.05;1.17;;;19.50;75.30;;;;;;10944903;32;20053;-77
2022/05/29 18:58:20;;;;;;;0.90;0.90;;;19.40;75.90;;;;;;10943545;32;20031;-74
2022/05/29 19:04:22;;;;;;;0.70;0.70;;;19.50;75.90;;;;;;10941162;32;20026;-76
2022/05/29 19:10:26;;;;;;;0.95;0.80;;;19.40;76.20;;;;;;10940087;32;20329;-77
2022/05/29 19:16:29;;;;;;;1.15;1.05;;;19.30;76.30;;;;;;10942838;32;20342;-76
2022/05/29 19:22:31;;;;;;;0.55;0.55;;;19.30;76.40;;;;;;10943535;32;20050;-77
2022/05/29 19:28:53;;;;;;;0.95;0.70;;;19.30;76.40;;;;;;10943528;32;20023;-77
2022/05/29 19:34:56;;;;;;;0.60;0.60;;;19.20;76.00;;;;;;10943237;32;20027;-76
2022/05/29 19:40:58;;;;;;;1.02;0.70;;;19.30;75.50;;;;;;10938599;32;20027;-77
2022/05/29 19:47:14;;;;;;;0.95;0.70;;;19.20;75.50;;;;;;10942756;32;20054;-76
2022/05/29 19:53:16;;;;;;;0.70;0.70;;;19.10;75.70;;;;;;10942180;32;20093;-76
2022/05/29 19:59:18;;;;;;;0.60;0.60;;;19.00;76.20;;;;;;10938913;32;20097;-76
2022/05/29 20:05:20;;;;;;;3.15;0.75;;;19.00;75.80;;;;;;10941552;32;20007;-76
2022/05/29 20:11:29;;;;;;;1.90;1.10;;;19.00;75.70;;;;;;10937729;32;20450;-76
2022/05/29 20:17:33;;;;;;;2.05;1.12;;;18.90;75.80;;;;;;10941980;32;20097;-76
2022/05/29 20:23:59;;;;;;;2.37;0.93;;;18.90;75.70;;;;;;10942025;32;20039;-76
2022/05/29 20:30:02;;;;;;;1.58;1.02;;;18.90;75.70;;;;;;10941920;32;20293;-76
2022/05/29 20:36:09;;;;;;;1.62;1.05;;;18.90;75.80;;;;;;10941708;32;20027;-76
2022/05/29 20:42:11;;;;;;;1.77;1.12;;;18.90;75.50;;;;;;10941632;32;20019;-76
2022/05/29 20:48:13;;;;;;;2.15;1.15;;;18.90;75.40;;;;;;10938669;32;20042;-75
2022/05/29 20:54:19;;;;;;;0.80;0.73;;;18.80;75.40;;;;;;10941238;32;20031;-76
2022/05/29 21:00:21;;;;;;;1.83;1.35;;;18.80;75.30;;;;;;10940365;32;20335;-76
2022/05/29 21:06:23;;;;;;;1.35;1.25;;;18.80;75.20;;;;;;10940292;32;20042;-76
2022/05/29 21:12:27;;;;;;;2.80;0.77;;;18.70;75.10;;;;;;10940914;32;20035;-74
2022/05/29 21:18:29;;;;;;;1.10;1.00;;;18.70;75.40;;;;;;10941194;32;20417;-74
2022/05/29 21:24:31;;;;;;;1.10;0.95;;;18.60;75.50;;;;;;10946658;32;20391;-74
2022/05/29 21:30:33;;;;;;;1.10;0.80;;;18.40;75.80;;;;;;10947327;32;20050;-74
2022/05/29 21:36:38;;;;;;;1.00;0.90;;;18.30;75.90;;;;;;10943048;32;20018;-74
2022/05/29 21:42:40;;;;;;;1.37;1.20;;;18.40;75.90;;;;;;10942691;32;20319;-74
2022/05/29 21:48:43;;;;;;;0.90;0.73;;;18.30;76.10;;;;;;10946822;32;20042;-74
2022/05/29 21:54:45;;;;;;;1.23;1.10;;;18.30;76.20;;;;;;10945750;32;20015;-74
2022/05/29 22:00:51;;;;;;;2.47;1.48;;;18.30;75.70;;;;;;10946248;32;20030;-74
2022/05/29 22:06:53;;;;;;;1.25;1.02;;;18.30;75.80;;;;;;10946413;32;20038;-76
2022/05/29 22:12:55;;;;;;;2.53;1.75;;;18.30;75.70;;;;;;10946114;32;20429;-75
2022/05/29 22:18:58;;;;;;;1.50;1.23;;;18.30;76.20;;;;;;10944862;32;20027;-75
2022/05/29 22:25:01;;;;;;;3.10;1.65;;;18.30;76.10;;;;;;10932043;32;20042;-75
2022/05/29 22:31:25;;;;;;;2.28;1.23;;;18.10;76.20;;;;;;10944457;32;20045;-75
2022/05/29 22:37:28;;;;;;;3.70;1.83;;;18.00;76.50;;;;;;10945122;32;20323;-75
2022/05/29 22:43:30;;;;;;;3.67;2.25;;;18.10;76.50;;;;;;10945012;32;20315;-76
2022/05/29 22:49:46;;;;;;;1.12;1.00;;;18.10;76.30;;;;;;10944757;32;20045;-75
2022/05/29 22:55:48;;;;;;;2.53;1.60;;;18.20;76.20;;;;;;10944312;32;20035;-75
2022/05/29 23:02:11;;;;;;;1.27;1.12;;;18.20;76.40;;;;;;10940994;32;20023;-75
2022/05/29 23:08:13;;;;;;;1.80;1.42;;;18.20;76.00;;;;;;10943934;32;20041;-75
2022/05/29 23:14:16;;;;;;;2.22;1.52;;;18.20;75.80;;;;;;10943625;32;20061;-75
2022/05/29 23:20:18;;;;;;;2.45;1.42;;;18.10;75.90;;;;;;10943629;32;20019;-75
2022/05/29 23:26:21;;;;;;;1.87;1.48;;;17.90;76.10;;;;;;10943336;32;20019;-75
2022/05/29 23:32:50;;;;;;;3.03;1.70;;;18.00;76.20;;;;;;10943172;32;20410;-75
2022/05/29 23:38:52;;;;;;;1.62;1.05;;;18.00;76.30;;;;;;10941942;32;20417;-75
2022/05/29 23:45:04;;;;;;;1.77;1.35;;;18.00;76.20;;;;;;10941513;32;20018;-75
2022/05/29 23:51:07;;;;;;;1.52;1.20;;;17.90;76.40;;;;;;10942615;32;20023;-75
2022/05/29 23:57:11;;;;;;;1.00;0.90;;;17.80;76.50;;;;;;10942539;32;20383;-75
